createdAt,value
2022-08-28T00:04:28.023Z,2.44
2022-08-28T00:09:37.936Z,2.41
2022-08-28T00:14:50.439Z,2.45
2022-08-28T00:19:56.879Z,2.70
2022-08-28T00:24:55.019Z,2.48
2022-08-28T00:30:14.038Z,2.25
2022-08-28T00:35:09.976Z,2.88
2022-08-28T00:40:09.365Z,2.42
2022-08-28T00:45:08.973Z,4.18
2022-08-28T00:50:18.439Z,2.54
2022-08-28T00:55:27.006Z,3.53
2022-08-28T01:00:40.813Z,2.62
2022-08-28T01:05:47.256Z,2.46
2022-08-28T01:10:48.935Z,1.92
2022-08-28T01:15:54.293Z,1.88
2022-08-28T01:20:57.612Z,1.96
2022-08-28T01:25:57.824Z,2.24
2022-08-28T01:30:55.607Z,2.54
2022-08-28T01:36:07.640Z,2.26
2022-08-28T01:41:06.031Z,3.22
2022-08-28T01:46:16.423Z,2.06
2022-08-28T01:51:19.416Z,3.09
2022-08-28T01:56:27.128Z,1.87
2022-08-28T02:01:19.192Z,2.81
2022-08-28T02:06:17.172Z,1.85
2022-08-28T02:11:26.075Z,1.45
2022-08-28T02:16:37.304Z,1.41
2022-08-28T02:21:34.018Z,2.12
2022-08-28T02:26:42.803Z,1.50
2022-08-28T02:31:52.062Z,1.45
2022-08-28T02:37:03.382Z,1.26
2022-08-28T02:42:00.363Z,1.09
2022-08-28T02:47:07.363Z,1.73
2022-08-28T02:52:16.575Z,1.71
2022-08-28T02:57:24.096Z,1.00
2022-08-28T03:02:34.883Z,1.66
2022-08-28T03:07:45.621Z,1.11
2022-08-28T03:12:45.813Z,0.94
2022-08-28T03:18:00.444Z,0.99
2022-08-28T03:22:50.719Z,1.08
2022-08-28T03:27:50.654Z,1.39
2022-08-28T03:33:02.168Z,0.98
2022-08-28T03:38:00.819Z,0.95
2022-08-28T03:43:10.535Z,0.89
2022-08-28T03:48:08.432Z,0.98
2022-08-28T03:53:17.092Z,1.62
2022-08-28T04:03:37.256Z,1.30
2022-08-28T04:08:35.140Z,0.99
2022-08-28T04:13:43.375Z,1.04
2022-08-28T04:19:01.206Z,0.99
2022-08-28T04:23:56.675Z,1.04
2022-08-28T04:29:16.562Z,0.85
2022-08-28T04:34:09.735Z,1.08
2022-08-28T04:39:07.071Z,0.99
2022-08-28T04:44:16.363Z,0.96
2022-08-28T04:49:28.592Z,1.22
2022-08-28T04:54:27.011Z,0.99
2022-08-28T04:59:34.893Z,1.80
2022-08-28T05:04:44.802Z,1.30
2022-08-28T05:09:53.888Z,1.93
2022-08-28T05:15:06.103Z,1.44
2022-08-28T05:20:03.297Z,1.51
2022-08-28T05:25:12.497Z,1.32
2022-08-28T05:30:26.665Z,2.03
2022-08-28T05:35:28.196Z,1.51
2022-08-28T05:40:26.490Z,1.46
2022-08-28T05:45:38.128Z,1.53
2022-08-28T05:50:35.948Z,1.80
2022-08-28T05:55:44.443Z,1.68
2022-08-28T06:00:52.895Z,1.75
2022-08-28T06:06:13.776Z,1.88
2022-08-28T06:11:11.718Z,1.78
2022-08-28T06:16:19.758Z,1.93
2022-08-28T06:21:31.022Z,3.37
2022-08-28T06:26:28.517Z,2.19
2022-08-28T06:31:42.723Z,3.19
2022-08-28T06:36:42.619Z,2.16
2022-08-28T06:41:50.608Z,2.37
2022-08-28T06:47:00.539Z,2.20
2022-08-28T06:52:10.768Z,1.99
2022-08-28T06:57:07.134Z,2.46
2022-08-28T07:02:17.696Z,2.27
2022-08-28T07:07:31.754Z,2.51
2022-08-28T07:12:30.491Z,2.49
2022-08-28T07:18:16.544Z,2.28
2022-08-28T07:22:35.637Z,2.30
2022-08-28T07:27:45.330Z,2.42
2022-08-28T07:32:47.608Z,2.28
2022-08-28T07:37:48.009Z,2.33
2022-08-28T07:42:46.693Z,2.30
2022-08-28T07:47:54.397Z,2.61
2022-08-28T07:53:03.643Z,2.39
2022-08-28T07:58:13.853Z,3.03
2022-08-28T08:03:14.658Z,2.43
2022-08-28T08:08:43.169Z,2.35
2022-08-28T08:13:42.186Z,3.25
2022-08-28T08:18:21.243Z,2.09
2022-08-28T08:23:28.697Z,2.35
2022-08-28T08:28:37.336Z,2.14
2022-08-28T08:33:47.727Z,1.68
2022-08-28T08:39:00.381Z,1.96
2022-08-28T08:43:58.716Z,1.78
2022-08-28T08:49:08.610Z,2.09
2022-08-28T08:54:21.542Z,1.98
2022-08-28T08:59:20.256Z,2.29
2022-08-28T09:04:33.621Z,2.21
2022-08-28T09:09:36.466Z,2.00
2022-08-28T09:14:38.850Z,1.97
2022-08-28T09:19:34.450Z,2.00
2022-08-28T09:24:45.444Z,3.16
2022-08-28T09:29:46.284Z,3.19
2022-08-28T09:34:53.597Z,2.06
2022-08-28T09:40:03.242Z,1.89
2022-08-28T09:44:57.746Z,1.56
2022-08-28T09:49:57.646Z,1.48
2022-08-28T09:55:17.582Z,1.73
2022-08-28T10:00:07.510Z,1.62
2022-08-28T10:05:07.986Z,1.53
2022-08-28T10:10:09.431Z,2.43
2022-08-28T10:15:08.936Z,2.42
2022-08-28T10:20:11.770Z,1.76
2022-08-28T10:25:13.235Z,1.61
2022-08-28T10:30:17.621Z,1.99
2022-08-28T10:35:15.454Z,1.63
2022-08-28T10:40:15.282Z,2.60
2022-08-28T10:46:28.608Z,2.35
2022-08-28T10:50:34.052Z,1.62
2022-08-28T10:55:55.821Z,1.60
2022-08-28T11:00:50.543Z,1.82
2022-08-28T11:06:19.384Z,1.58
2022-08-28T11:10:59.956Z,2.70
2022-08-28T11:16:10.265Z,1.53
2022-08-28T11:21:12.378Z,1.57
2022-08-28T11:36:24.741Z,1.65
2022-08-28T11:42:40.648Z,1.64
2022-08-28T11:47:47.651Z,1.74
2022-08-28T11:52:45.055Z,1.14
2022-08-28T11:57:55.543Z,1.37
2022-08-28T12:02:46.328Z,1.40
2022-08-28T12:07:53.567Z,1.44
2022-08-28T12:13:00.709Z,1.48
2022-08-28T12:18:19.548Z,1.36
2022-08-28T12:23:18.359Z,3.98
2022-08-28T12:28:07.681Z,1.56
2022-08-28T12:33:18.801Z,1.45
2022-08-28T12:38:18.271Z,1.33
2022-08-28T12:43:28.790Z,1.93
2022-08-28T12:48:29.292Z,1.44
2022-08-28T12:53:30.625Z,1.36
2022-08-28T12:58:30.398Z,1.20
2022-08-28T13:03:51.432Z,1.29
2022-08-28T13:08:50.129Z,1.51
2022-08-28T13:13:46.595Z,1.65
2022-08-28T13:18:47.511Z,1.40
2022-08-28T13:25:43.836Z,1.27
2022-08-28T13:28:53.738Z,1.30
2022-08-28T13:34:03.305Z,1.32
2022-08-28T13:39:01.252Z,1.27
2022-08-28T13:44:12.290Z,1.13
2022-08-28T13:49:14.540Z,1.19
2022-08-28T13:54:29.370Z,1.30
2022-08-28T13:59:29.666Z,1.07
2022-08-28T14:04:18.037Z,1.33
2022-08-28T14:09:35.106Z,1.40
2022-08-28T14:14:36.734Z,1.32
2022-08-28T14:19:44.979Z,1.40
2022-08-28T14:24:35.299Z,1.14
2022-08-28T14:30:02.466Z,1.73
2022-08-28T14:34:58.080Z,1.14
2022-08-28T14:40:00.403Z,1.32
2022-08-28T14:45:01.167Z,1.38
2022-08-28T14:50:02.403Z,1.13
2022-08-28T14:55:02.151Z,1.41
2022-08-28T15:00:16.204Z,1.17
2022-08-28T15:05:19.079Z,1.19
2022-08-28T15:10:26.478Z,1.38
2022-08-28T15:15:37.082Z,1.16
2022-08-28T15:20:46.258Z,1.22
2022-08-28T15:25:46.020Z,1.14
2022-08-28T15:31:06.430Z,1.21
2022-08-28T15:36:01.054Z,0.96
2022-08-28T15:41:03.810Z,1.19
2022-08-28T15:46:07.902Z,1.25
2022-08-28T15:51:08.121Z,1.41
2022-08-28T15:56:05.225Z,1.48
2022-08-28T16:01:14.557Z,1.30
2022-08-28T16:06:23.181Z,1.23
2022-08-28T16:11:38.847Z,1.31
2022-08-28T16:16:35.572Z,1.39
2022-08-28T16:21:41.842Z,1.18
2022-08-28T16:26:48.348Z,2.03
2022-08-28T16:31:54.722Z,1.31
2022-08-28T16:37:02.183Z,1.29
2022-08-28T16:42:08.599Z,1.58
2022-08-28T16:47:14.958Z,1.70
2022-08-28T16:52:21.248Z,1.46
2022-08-28T16:57:29.689Z,1.49
2022-08-28T17:02:37.438Z,1.69
2022-08-28T17:07:43.651Z,1.47
2022-08-28T17:12:50.002Z,2.08
2022-08-28T17:17:56.443Z,1.34
2022-08-28T17:23:02.762Z,1.73
2022-08-28T17:28:09.041Z,1.58
2022-08-28T17:33:15.515Z,1.30
2022-08-28T17:38:22.045Z,0.97
2022-08-28T17:43:28.320Z,1.08
2022-08-28T17:48:34.610Z,1.20
2022-08-28T17:53:42.951Z,1.13
2022-08-28T17:58:48.995Z,1.03
2022-08-28T18:03:55.320Z,1.29
2022-08-28T18:09:01.785Z,1.01
2022-08-28T18:14:08.130Z,1.22
2022-08-28T18:19:17.380Z,1.12
2022-08-28T18:24:23.824Z,1.12
2022-08-28T18:29:43.052Z,1.42
2022-08-28T18:34:33.077Z,1.24
2022-08-28T18:39:39.374Z,1.35
2022-08-28T18:44:45.648Z,1.21
2022-08-28T18:49:54.321Z,1.14
2022-08-28T18:55:02.594Z,1.47
2022-08-28T19:00:10.128Z,1.40
2022-08-28T19:05:18.379Z,1.41
2022-08-28T19:10:33.579Z,1.65
2022-08-28T19:15:30.867Z,1.15
2022-08-28T19:20:38.342Z,1.18
2022-08-28T19:25:44.716Z,1.20
2022-08-28T19:30:51.227Z,1.16
2022-08-28T19:35:57.582Z,1.09
2022-08-28T19:41:03.912Z,1.08
2022-08-28T19:46:10.227Z,1.24
2022-08-28T19:51:17.504Z,1.45
2022-08-28T19:56:24.610Z,1.30
2022-08-28T20:01:32.014Z,1.09
2022-08-28T20:06:38.307Z,1.13
2022-08-28T20:11:44.567Z,1.30
2022-08-28T20:16:51.879Z,1.38
2022-08-28T20:21:58.182Z,1.16
2022-08-28T20:27:05.925Z,1.10
2022-08-28T20:32:12.387Z,1.51
2022-08-28T20:37:19.838Z,1.10
2022-08-28T20:42:26.154Z,1.48
2022-08-28T20:47:32.010Z,1.16
2022-08-28T20:52:39.400Z,1.07
2022-08-28T20:57:46.006Z,1.38
2022-08-28T21:02:52.288Z,0.99
2022-08-28T21:07:58.557Z,0.97
2022-08-28T21:13:04.848Z,1.31
2022-08-28T21:18:11.743Z,1.46
2022-08-28T21:23:17.023Z,1.55
2022-08-28T21:28:23.297Z,1.04
2022-08-28T21:33:29.732Z,0.88
2022-08-28T21:38:36.070Z,1.08
2022-08-28T21:43:42.497Z,1.09
2022-08-28T21:48:48.916Z,1.00
2022-08-28T21:53:55.251Z,0.97
2022-08-28T21:59:02.801Z,1.25
2022-08-28T22:04:09.126Z,1.06
2022-08-28T22:09:15.459Z,1.28
2022-08-28T22:14:21.870Z,1.26
2022-08-28T22:19:28.282Z,1.57
2022-08-28T22:24:34.760Z,1.19
2022-08-28T22:29:41.103Z,1.83
2022-08-28T22:34:47.508Z,1.24
2022-08-28T22:39:53.952Z,1.18
2022-08-28T22:45:01.200Z,1.07
2022-08-28T22:50:07.572Z,1.13
2022-08-28T22:55:13.946Z,1.15
2022-08-28T23:00:20.178Z,1.13
2022-08-28T23:05:26.742Z,1.26
2022-08-28T23:10:57.451Z,1.31
2022-08-28T23:15:40.128Z,1.24
2022-08-28T23:20:46.535Z,1.24
2022-08-28T23:25:52.925Z,1.75
2022-08-28T23:31:00.401Z,1.87
2022-08-28T23:36:06.713Z,1.19
2022-08-28T23:41:13.316Z,1.94
2022-08-28T23:46:19.508Z,1.80
2022-08-28T23:51:25.986Z,1.94
2022-08-28T23:56:31.746Z,1.23
